createdAt,value
2019-04-06T00:01:17.467Z,19.37
2019-04-06T00:03:46.022Z,18.00
2019-04-06T00:06:14.587Z,18.13
2019-04-06T00:08:43.190Z,20.57
2019-04-06T00:11:11.783Z,18.57
2019-04-06T00:13:40.339Z,19.13
2019-04-06T00:16:08.980Z,18.93
2019-04-06T00:18:37.527Z,19.97
2019-04-06T00:21:06.105Z,18.90
2019-04-06T00:23:34.658Z,19.80
2019-04-06T00:26:03.239Z,19.33
2019-04-06T00:28:31.872Z,19.07
2019-04-06T00:31:18.467Z,19.87
2019-04-06T00:33:47.186Z,19.90
2019-04-06T00:36:15.811Z,20.30
2019-04-06T00:38:44.385Z,21.30
2019-04-06T00:41:12.932Z,19.60
2019-04-06T00:43:41.523Z,19.43
2019-04-06T00:46:10.147Z,20.00
2019-04-06T00:48:38.802Z,19.90
2019-04-06T00:51:07.356Z,19.20
2019-04-06T00:53:35.923Z,20.30
2019-04-06T00:56:04.555Z,19.80
2019-04-06T00:58:33.135Z,19.60
2019-04-06T01:01:01.952Z,19.20
2019-04-06T01:03:30.589Z,19.67
2019-04-06T01:05:59.130Z,19.70
2019-04-06T01:08:27.780Z,19.87
2019-04-06T01:10:56.422Z,19.67
2019-04-06T01:13:24.899Z,20.47
2019-04-06T01:15:53.846Z,21.53
2019-04-06T01:18:22.410Z,19.53
2019-04-06T01:20:50.981Z,20.50
2019-04-06T01:23:19.851Z,21.87
2019-04-06T01:25:48.592Z,21.30
2019-04-06T01:28:17.263Z,22.10
2019-04-06T01:30:45.907Z,21.07
2019-04-06T01:33:14.575Z,20.77
2019-04-06T01:35:43.148Z,22.27
2019-04-06T01:38:11.695Z,21.53
2019-04-06T01:40:40.467Z,23.33
2019-04-06T01:43:09.068Z,24.10
2019-04-06T01:45:37.624Z,24.03
2019-04-06T01:48:06.259Z,25.97
2019-04-06T01:50:34.885Z,22.20
2019-04-06T01:53:03.488Z,20.87
2019-04-06T01:55:32.039Z,19.20
2019-04-06T01:58:01.051Z,21.83
2019-04-06T02:00:29.596Z,21.70
2019-04-06T02:02:58.201Z,21.67
2019-04-06T02:05:26.723Z,22.60
2019-04-06T02:07:55.298Z,25.00
2019-04-06T02:10:23.911Z,23.03
2019-04-06T02:12:52.771Z,22.23
2019-04-06T02:15:21.326Z,22.40
2019-04-06T02:17:49.877Z,24.23
2019-04-06T02:20:18.447Z,24.13
2019-04-06T02:22:46.992Z,23.73
2019-04-06T02:25:15.567Z,25.83
2019-04-06T02:27:44.120Z,25.40
2019-04-06T02:30:17.504Z,23.20
2019-04-06T02:33:00.046Z,21.43
2019-04-06T02:35:36.667Z,21.40
2019-04-06T02:38:06.869Z,21.33
2019-04-06T02:40:43.329Z,21.97
2019-04-06T02:43:19.256Z,23.73
2019-04-06T02:45:48.170Z,21.97
2019-04-06T02:48:16.718Z,21.50
2019-04-06T02:50:45.284Z,24.00
2019-04-06T02:53:14.181Z,23.13
2019-04-06T02:55:42.918Z,23.20
2019-04-06T02:58:11.814Z,22.40
2019-04-06T03:00:40.747Z,24.77
2019-04-06T03:03:09.316Z,23.13
2019-04-06T03:05:37.940Z,24.03
2019-04-06T03:08:06.751Z,24.50
2019-04-06T03:10:35.296Z,25.77
2019-04-06T03:13:04.112Z,24.53
2019-04-06T03:15:32.736Z,25.90
2019-04-06T03:18:01.327Z,26.80
2019-04-06T03:20:30.205Z,26.00
2019-04-06T03:22:58.754Z,26.93
2019-04-06T03:25:27.319Z,24.53
2019-04-06T03:27:55.884Z,25.93
2019-04-06T03:30:24.440Z,25.57
2019-04-06T03:32:53.000Z,24.40
2019-04-06T03:35:21.618Z,26.37
2019-04-06T03:37:50.228Z,24.43
2019-04-06T03:40:18.799Z,26.20
2019-04-06T03:42:47.351Z,25.87
2019-04-06T03:45:16.053Z,26.37
2019-04-06T03:47:44.788Z,26.23
2019-04-06T03:50:13.516Z,25.87
2019-04-06T03:52:42.046Z,27.27
2019-04-06T03:55:10.612Z,27.30
2019-04-06T03:57:39.183Z,27.20
2019-04-06T04:00:07.975Z,26.90
2019-04-06T04:02:36.573Z,28.07
2019-04-06T04:05:06.267Z,27.03
2019-04-06T04:07:34.848Z,27.57
2019-04-06T04:10:05.156Z,29.93
2019-04-06T04:12:33.761Z,27.87
2019-04-06T04:15:02.874Z,28.57
2019-04-06T04:17:31.560Z,27.50
2019-04-06T04:20:00.115Z,28.47
2019-04-06T04:22:28.667Z,29.67
2019-04-06T04:24:57.243Z,32.13
2019-04-06T04:27:29.894Z,28.90
2019-04-06T04:29:56.301Z,30.60
2019-04-06T04:32:24.860Z,29.73
2019-04-06T04:34:53.423Z,30.93
2019-04-06T04:37:22.171Z,30.23
2019-04-06T04:39:50.759Z,31.00
2019-04-06T04:42:19.303Z,31.00
2019-04-06T04:44:47.901Z,32.23
2019-04-06T04:47:16.476Z,31.33
2019-04-06T04:49:45.023Z,32.47
2019-04-06T04:52:13.597Z,30.90
2019-04-06T04:54:42.375Z,29.70
2019-04-06T04:57:11.052Z,29.63
2019-04-06T04:59:39.768Z,30.03
2019-04-06T05:02:08.405Z,30.87
2019-04-06T05:04:36.951Z,31.37
2019-04-06T05:07:05.576Z,29.67
2019-04-06T05:09:34.072Z,30.70
2019-04-06T05:12:02.664Z,30.57
2019-04-06T05:14:54.215Z,28.57
2019-04-06T05:17:22.789Z,29.30
2019-04-06T05:19:51.351Z,31.77
2019-04-06T05:22:19.920Z,31.07
2019-04-06T05:24:48.631Z,31.07
2019-04-06T05:27:17.295Z,29.77
2019-04-06T05:29:45.966Z,29.87
2019-04-06T05:32:14.789Z,31.77
2019-04-06T05:34:43.661Z,30.97
2019-04-06T05:37:12.489Z,31.07
2019-04-06T05:39:41.115Z,30.87
2019-04-06T05:42:09.666Z,30.77
2019-04-06T05:44:38.270Z,31.87
2019-04-06T05:47:06.793Z,30.20
2019-04-06T05:49:35.368Z,29.17
2019-04-06T05:52:03.960Z,30.33
2019-04-06T05:54:32.681Z,29.10
2019-04-06T05:57:01.271Z,29.37
2019-04-06T05:59:30.059Z,28.27
2019-04-06T06:01:58.683Z,30.00
2019-04-06T06:04:27.251Z,28.93
2019-04-06T06:06:55.852Z,26.93
2019-04-06T06:09:24.487Z,27.73
2019-04-06T06:11:55.398Z,28.13
2019-04-06T06:14:23.255Z,36.20
2019-04-06T06:16:51.826Z,28.70
2019-04-06T06:19:20.588Z,25.90
2019-04-06T06:21:49.161Z,26.27
2019-04-06T06:24:17.706Z,27.67
2019-04-06T06:26:46.287Z,29.03
2019-04-06T06:29:14.835Z,25.30
2019-04-06T06:31:43.724Z,26.80
2019-04-06T06:34:12.349Z,27.37
2019-04-06T06:36:41.182Z,27.33
2019-04-06T06:39:10.396Z,28.90
2019-04-06T06:41:38.951Z,28.93
2019-04-06T06:44:07.803Z,29.73
2019-04-06T06:46:36.575Z,32.17
2019-04-06T06:49:05.525Z,30.37
2019-04-06T06:51:34.093Z,27.13
2019-04-06T06:54:02.724Z,28.43
2019-04-06T06:56:31.319Z,29.83
2019-04-06T06:59:00.102Z,29.07
2019-04-06T07:01:28.671Z,33.10
2019-04-06T07:03:57.233Z,31.30
2019-04-06T07:06:25.819Z,30.13
2019-04-06T07:08:54.373Z,32.70
2019-04-06T07:11:22.931Z,31.57
2019-04-06T07:13:51.515Z,30.07
2019-04-06T07:16:20.369Z,29.50
2019-04-06T07:18:48.955Z,29.77
2019-04-06T07:21:17.516Z,31.00
2019-04-06T07:23:46.249Z,27.53
2019-04-06T07:26:14.870Z,28.77
2019-04-06T07:28:43.600Z,27.73
2019-04-06T07:31:12.225Z,24.80
2019-04-06T07:33:41.066Z,25.53
2019-04-06T07:36:09.641Z,25.43
2019-04-06T07:38:38.506Z,25.60
2019-04-06T07:41:07.557Z,25.80
2019-04-06T07:43:36.258Z,25.57
2019-04-06T07:46:05.027Z,26.63
2019-04-06T07:48:33.633Z,27.50
2019-04-06T07:51:02.239Z,26.53
2019-04-06T07:53:30.806Z,27.90
2019-04-06T07:55:59.396Z,29.07
2019-04-06T07:58:29.313Z,30.10
2019-04-06T08:00:57.846Z,28.80
2019-04-06T08:03:26.495Z,30.67
2019-04-06T08:05:56.067Z,30.17
2019-04-06T08:08:24.633Z,32.17
2019-04-06T08:10:53.272Z,30.87
2019-04-06T08:13:21.851Z,30.37
2019-04-06T08:15:50.454Z,30.60
2019-04-06T08:18:19.120Z,29.77
2019-04-06T08:20:47.697Z,29.17
2019-04-06T08:23:16.412Z,29.93
2019-04-06T08:25:44.962Z,26.47
2019-04-06T08:28:13.983Z,28.40
2019-04-06T08:30:46.049Z,29.93
2019-04-06T08:33:12.790Z,30.87
2019-04-06T08:35:41.580Z,29.23
2019-04-06T08:38:10.151Z,27.07
2019-04-06T08:40:38.901Z,25.63
2019-04-06T08:43:07.563Z,25.33
2019-04-06T08:45:36.131Z,28.67
2019-04-06T08:48:04.823Z,29.07
2019-04-06T08:50:33.490Z,29.43
2019-04-06T08:53:02.058Z,28.23
2019-04-06T08:55:30.642Z,29.90
2019-04-06T08:57:59.198Z,28.10
2019-04-06T09:00:27.949Z,30.53
2019-04-06T09:02:56.508Z,30.43
2019-04-06T09:05:25.086Z,30.27
2019-04-06T09:07:53.655Z,28.33
2019-04-06T09:10:22.251Z,25.20
2019-04-06T09:12:50.813Z,27.63
2019-04-06T09:15:19.504Z,30.03
2019-04-06T09:17:48.177Z,31.03
2019-04-06T09:20:16.922Z,31.83
2019-04-06T09:22:45.625Z,31.60
2019-04-06T09:25:14.271Z,30.70
2019-04-06T09:27:42.985Z,31.97
2019-04-06T09:30:12.019Z,30.97
2019-04-06T09:32:40.609Z,32.10
2019-04-06T09:35:09.246Z,33.17
2019-04-06T09:37:37.839Z,30.87
2019-04-06T09:40:07.682Z,34.23
2019-04-06T09:42:36.400Z,32.90
2019-04-06T09:45:23.614Z,31.13
2019-04-06T09:47:53.862Z,35.73
2019-04-06T09:50:24.015Z,32.70
2019-04-06T09:53:00.232Z,33.57
2019-04-06T09:55:30.510Z,32.30
2019-04-06T09:58:03.699Z,33.07
2019-04-06T10:00:39.628Z,32.33
2019-04-06T10:03:26.405Z,32.97
2019-04-06T10:06:05.655Z,33.67
2019-04-06T10:08:52.005Z,34.03
2019-04-06T10:11:24.975Z,33.10
2019-04-06T10:13:55.254Z,32.13
2019-04-06T10:16:25.825Z,32.90
2019-04-06T10:19:05.518Z,32.03
2019-04-06T10:21:51.984Z,28.90
2019-04-06T10:24:22.210Z,31.00
2019-04-06T10:26:55.216Z,33.03
2019-04-06T10:29:25.572Z,30.97
2019-04-06T10:31:55.787Z,31.57
2019-04-06T10:34:26.008Z,30.87
2019-04-06T10:36:56.205Z,32.27
2019-04-06T10:39:43.070Z,25.80
2019-04-06T10:42:16.384Z,28.97
2019-04-06T10:44:46.621Z,22.97
2019-04-06T10:47:16.819Z,25.20
2019-04-06T10:49:59.275Z,25.83
2019-04-06T10:52:29.592Z,23.67
2019-04-06T10:55:05.811Z,21.80
2019-04-06T10:57:36.011Z,21.90
2019-04-06T11:00:08.093Z,22.40
2019-04-06T11:02:47.531Z,23.83
2019-04-06T11:05:18.373Z,23.73
2019-04-06T11:07:48.651Z,24.53
2019-04-06T11:10:19.131Z,24.47
2019-04-06T11:13:01.329Z,23.27
2019-04-06T11:15:31.637Z,23.83
2019-04-06T11:18:16.917Z,24.43
2019-04-06T11:21:05.493Z,24.17
2019-04-06T11:23:35.790Z,25.83
2019-04-06T11:26:22.242Z,25.57
2019-04-06T11:28:58.213Z,23.77
2019-04-06T11:31:37.335Z,23.97
2019-04-06T11:34:08.048Z,21.67
2019-04-06T11:36:44.361Z,21.73
2019-04-06T11:39:14.961Z,22.13
2019-04-06T11:41:45.552Z,21.93
2019-04-06T11:44:32.395Z,21.20
2019-04-06T11:47:05.190Z,23.20
2019-04-06T11:49:35.389Z,21.20
2019-04-06T11:52:22.169Z,40.80
2019-04-06T11:55:09.189Z,22.57
2019-04-06T11:57:42.719Z,22.27
2019-04-06T12:00:30.802Z,19.20
2019-04-06T12:03:20.331Z,21.97
2019-04-06T12:06:07.055Z,22.07
2019-04-06T12:08:40.305Z,21.00
2019-04-06T12:11:20.133Z,20.27
2019-04-06T12:13:50.334Z,20.83
2019-04-06T12:16:36.958Z,20.50
2019-04-06T12:19:14.658Z,19.37
2019-04-06T12:21:53.906Z,19.93
2019-04-06T12:24:27.373Z,20.83
2019-04-06T12:27:00.961Z,20.13
2019-04-06T12:29:48.009Z,20.27
2019-04-06T12:32:21.507Z,21.87
2019-04-06T12:34:54.952Z,19.93
2019-04-06T12:37:40.487Z,22.03
2019-04-06T12:40:10.968Z,19.93
2019-04-06T12:42:50.647Z,19.93
2019-04-06T12:45:32.721Z,19.87
2019-04-06T12:48:19.714Z,18.37
2019-04-06T12:51:06.652Z,19.67
2019-04-06T12:53:45.727Z,19.50
2019-04-06T12:56:16.292Z,20.03
2019-04-06T12:59:01.918Z,20.70
2019-04-06T13:01:34.845Z,17.23
2019-04-06T13:04:21.095Z,18.40
2019-04-06T13:07:00.327Z,17.53
2019-04-06T13:09:33.937Z,19.20
2019-04-06T13:12:10.059Z,20.07
2019-04-06T13:14:40.369Z,18.43
2019-04-06T13:17:26.767Z,17.53
2019-04-06T13:20:02.856Z,16.10
2019-04-06T13:22:42.330Z,18.27
2019-04-06T13:25:21.460Z,16.87
2019-04-06T13:28:00.628Z,16.43
2019-04-06T13:30:36.823Z,17.77
2019-04-06T13:33:19.364Z,17.77
2019-04-06T13:35:49.684Z,16.77
2019-04-06T13:38:19.992Z,16.50
2019-04-06T13:41:06.830Z,16.93
2019-04-06T13:43:40.225Z,16.67
2019-04-06T13:46:10.499Z,16.33
2019-04-06T13:48:59.046Z,17.63
2019-04-06T13:51:46.203Z,17.40
2019-04-06T13:54:28.912Z,16.47
2019-04-06T13:57:11.076Z,17.67
2019-04-06T13:59:50.981Z,16.70
2019-04-06T14:02:21.271Z,16.57
2019-04-06T14:04:54.261Z,17.37
2019-04-06T14:07:40.638Z,16.70
2019-04-06T14:10:16.774Z,18.63
2019-04-06T14:12:47.008Z,16.77
2019-04-06T14:15:17.345Z,16.07
2019-04-06T14:17:47.563Z,16.07
2019-04-06T14:20:20.436Z,17.30
2019-04-06T14:22:56.410Z,16.80
2019-04-06T14:25:32.629Z,16.43
2019-04-06T14:28:19.533Z,17.43
2019-04-06T14:30:59.095Z,16.73
2019-04-06T14:33:46.135Z,17.10
2019-04-06T14:36:16.494Z,17.53
2019-04-06T14:38:59.844Z,17.63
2019-04-06T14:41:48.615Z,17.00
2019-04-06T14:44:21.950Z,17.23
2019-04-06T14:47:01.626Z,18.73
2019-04-06T14:49:50.210Z,17.03
2019-04-06T14:52:36.710Z,16.20
2019-04-06T14:55:07.954Z,17.37
2019-04-06T14:57:38.202Z,17.33
2019-04-06T15:00:26.234Z,16.70
2019-04-06T15:03:02.675Z,17.50
2019-04-06T15:05:41.946Z,18.20
2019-04-06T15:08:15.087Z,17.93
2019-04-06T15:10:51.331Z,17.23
2019-04-06T15:13:21.527Z,17.83
2019-04-06T15:16:00.784Z,18.17
2019-04-06T15:18:36.454Z,17.37
2019-04-06T15:21:12.420Z,16.63
2019-04-06T15:23:48.487Z,17.37
2019-04-06T15:26:22.412Z,15.90
2019-04-06T15:28:52.985Z,16.60
2019-04-06T15:31:29.082Z,17.07
2019-04-06T15:34:06.071Z,17.67
2019-04-06T15:36:45.313Z,17.30
2019-04-06T15:39:18.326Z,15.93
2019-04-06T15:41:57.007Z,15.83
2019-04-06T15:44:39.232Z,17.00
2019-04-06T15:47:09.452Z,15.80
2019-04-06T15:49:57.995Z,15.90
2019-04-06T15:52:44.657Z,15.67
2019-04-06T15:55:24.074Z,16.80
2019-04-06T15:57:54.461Z,15.63
2019-04-06T16:00:30.102Z,16.43
2019-04-06T16:03:03.266Z,15.33
2019-04-06T16:05:33.468Z,15.60
2019-04-06T16:08:03.688Z,16.57
2019-04-06T16:10:34.552Z,15.97
2019-04-06T16:13:13.697Z,14.50
2019-04-06T16:15:52.726Z,15.10
2019-04-06T16:18:33.669Z,14.77
2019-04-06T16:21:07.574Z,15.17
2019-04-06T16:24:01.295Z,15.03
2019-04-06T16:26:22.407Z,16.37
2019-04-06T16:29:10.691Z,14.70
2019-04-06T16:31:44.958Z,14.83
2019-04-06T16:34:24.546Z,14.57
2019-04-06T16:37:15.801Z,13.37
2019-04-06T16:40:06.119Z,14.93
2019-04-06T16:42:51.585Z,15.53
2019-04-06T16:45:30.997Z,14.27
2019-04-06T16:48:01.199Z,14.10
2019-04-06T16:50:37.374Z,14.60
2019-04-06T16:53:18.157Z,14.37
2019-04-06T16:55:48.801Z,15.00
2019-04-06T16:58:21.710Z,14.70
2019-04-06T17:01:09.749Z,14.17
2019-04-06T17:03:46.533Z,14.53
2019-04-06T17:06:22.617Z,14.73
2019-04-06T17:08:55.640Z,14.63
2019-04-06T17:11:35.094Z,14.40
2019-04-06T17:14:22.027Z,15.60
2019-04-06T17:17:08.616Z,14.47
2019-04-06T17:19:54.227Z,16.27
2019-04-06T17:22:24.558Z,14.53
2019-04-06T17:25:11.176Z,14.20
2019-04-06T17:27:41.918Z,15.20
2019-04-06T17:30:15.481Z,14.67
2019-04-06T17:33:02.731Z,15.57
2019-04-06T17:35:33.357Z,14.53
2019-04-06T17:38:06.151Z,14.87
2019-04-06T17:40:39.159Z,15.27
2019-04-06T17:43:15.745Z,15.43
2019-04-06T17:45:52.278Z,14.83
2019-04-06T17:48:28.899Z,14.30
2019-04-06T17:51:17.740Z,15.43
2019-04-06T17:53:51.301Z,15.37
2019-04-06T17:56:21.773Z,14.50
2019-04-06T17:59:08.638Z,15.03
2019-04-06T18:01:47.953Z,14.60
2019-04-06T18:04:34.695Z,15.30
2019-04-06T18:07:21.419Z,14.70
2019-04-06T18:09:51.883Z,15.03
2019-04-06T18:12:22.153Z,14.67
2019-04-06T18:14:51.507Z,14.67
2019-04-06T18:17:20.115Z,14.43
2019-04-06T18:19:48.691Z,15.00
2019-04-06T18:22:18.568Z,15.70
2019-04-06T18:24:47.218Z,15.23
2019-04-06T18:27:16.240Z,14.73
2019-04-06T18:29:45.367Z,14.30
2019-04-06T18:32:33.965Z,14.23
2019-04-06T18:35:02.890Z,15.13
2019-04-06T18:37:36.036Z,14.97
2019-04-06T18:40:08.116Z,15.30
2019-04-06T18:42:36.743Z,14.70
2019-04-06T18:45:06.466Z,14.43
2019-04-06T18:47:35.051Z,15.07
2019-04-06T18:50:04.767Z,14.80
2019-04-06T18:52:33.399Z,13.93
2019-04-06T18:55:01.944Z,14.33
2019-04-06T18:57:33.057Z,14.63
2019-04-06T19:00:01.856Z,14.83
2019-04-06T19:02:30.595Z,13.90
2019-04-06T19:05:01.332Z,14.93
2019-04-06T19:07:30.265Z,14.37
2019-04-06T19:09:59.151Z,15.30
2019-04-06T19:12:27.880Z,14.97
2019-04-06T19:14:56.554Z,13.83
2019-04-06T19:17:25.158Z,14.40
2019-04-06T19:19:53.906Z,13.63
2019-04-06T19:22:22.824Z,13.73
2019-04-06T19:24:51.475Z,13.20
2019-04-06T19:27:20.553Z,13.97
2019-04-06T19:29:49.110Z,13.87
2019-04-06T19:32:18.015Z,14.20
2019-04-06T19:34:47.019Z,12.87
2019-04-06T19:37:16.031Z,13.50
2019-04-06T19:39:45.045Z,13.13
2019-04-06T19:42:13.988Z,12.63
2019-04-06T19:44:42.588Z,12.73
2019-04-06T19:47:11.125Z,13.40
2019-04-06T19:49:39.876Z,13.67
2019-04-06T19:52:08.475Z,12.03
2019-04-06T19:54:37.052Z,12.13
2019-04-06T19:57:05.619Z,12.03
2019-04-06T19:59:34.622Z,12.77
2019-04-06T20:02:03.242Z,12.90
2019-04-06T20:04:31.889Z,17.03
2019-04-06T20:07:00.389Z,15.10
2019-04-06T20:09:29.229Z,13.87
2019-04-06T20:12:04.379Z,14.63
2019-04-06T20:14:29.978Z,15.47
2019-04-06T20:16:58.787Z,15.00
2019-04-06T20:19:27.306Z,14.93
2019-04-06T20:21:56.606Z,16.03
2019-04-06T20:24:25.169Z,15.00
2019-04-06T20:26:53.730Z,14.70
2019-04-06T20:29:22.353Z,14.40
2019-04-06T20:31:51.034Z,14.17
2019-04-06T20:34:20.240Z,14.17
2019-04-06T20:36:48.910Z,14.07
2019-04-06T20:39:17.474Z,13.10
2019-04-06T20:41:46.479Z,39.57
2019-04-06T20:44:15.608Z,22.27
2019-04-06T20:46:44.249Z,17.40
2019-04-06T20:49:12.887Z,13.60
2019-04-06T20:51:41.553Z,13.20
2019-04-06T20:54:10.635Z,13.50
2019-04-06T20:56:39.308Z,10.80
2019-04-06T20:59:07.836Z,10.60
2019-04-06T21:01:36.482Z,10.60
2019-04-06T21:04:05.369Z,9.77
2019-04-06T21:06:34.554Z,9.77
2019-04-06T21:09:04.762Z,11.70
2019-04-06T21:11:34.010Z,12.17
2019-04-06T21:14:03.291Z,11.63
2019-04-06T21:16:34.636Z,12.07
2019-04-06T21:19:03.735Z,11.97
2019-04-06T21:21:32.632Z,12.03
2019-04-06T21:24:01.558Z,12.23
2019-04-06T21:26:30.118Z,13.83
2019-04-06T21:28:58.693Z,14.93
2019-04-06T21:31:27.404Z,14.23
2019-04-06T21:33:56.087Z,14.93
2019-04-06T21:36:24.748Z,13.50
2019-04-06T21:38:53.858Z,15.13
2019-04-06T21:41:23.011Z,14.43
2019-04-06T21:43:52.131Z,14.90
2019-04-06T21:46:21.306Z,15.30
2019-04-06T21:48:50.655Z,13.97
2019-04-06T21:51:19.335Z,15.13
2019-04-06T21:53:48.013Z,14.77
2019-04-06T21:56:16.861Z,14.93
2019-04-06T21:58:45.898Z,15.63
2019-04-06T22:01:17.339Z,14.20
2019-04-06T22:03:45.858Z,15.20
2019-04-06T22:06:14.581Z,14.83
2019-04-06T22:08:43.208Z,14.43
2019-04-06T22:11:11.970Z,14.43
2019-04-06T22:13:40.905Z,14.23
2019-04-06T22:16:09.618Z,15.47
2019-04-06T22:18:38.551Z,14.50
2019-04-06T22:21:07.191Z,14.60
2019-04-06T22:23:42.203Z,14.27
2019-04-06T22:26:06.085Z,14.00
2019-04-06T22:28:35.064Z,14.33
2019-04-06T22:31:04.221Z,13.57
2019-04-06T22:33:33.115Z,13.10
2019-04-06T22:36:02.160Z,12.97
2019-04-06T22:38:30.878Z,13.40
2019-04-06T22:40:59.423Z,14.10
2019-04-06T22:43:28.284Z,12.73
2019-04-06T22:45:57.550Z,12.80
2019-04-06T22:48:26.596Z,12.30
2019-04-06T22:50:55.193Z,11.97
2019-04-06T22:53:23.818Z,12.03
2019-04-06T22:55:52.370Z,11.27
2019-04-06T22:58:20.964Z,13.50
2019-04-06T23:00:51.205Z,11.00
2019-04-06T23:03:27.406Z,11.43
2019-04-06T23:05:57.529Z,11.17
2019-04-06T23:08:26.266Z,11.93
2019-04-06T23:10:54.760Z,11.40
2019-04-06T23:13:23.331Z,11.30
2019-04-06T23:15:51.888Z,11.43
2019-04-06T23:18:20.892Z,11.33
2019-04-06T23:20:49.607Z,11.97
2019-04-06T23:23:18.510Z,12.97
2019-04-06T23:25:47.327Z,14.03
2019-04-06T23:28:15.935Z,11.63
2019-04-06T23:30:44.555Z,11.90
2019-04-06T23:33:13.108Z,10.87
2019-04-06T23:35:42.273Z,11.33
2019-04-06T23:38:11.215Z,12.47
2019-04-06T23:40:40.090Z,12.57
2019-04-06T23:43:08.643Z,12.07
2019-04-06T23:45:37.823Z,11.97
2019-04-06T23:48:06.369Z,12.27
2019-04-06T23:50:36.889Z,11.83
2019-04-06T23:53:05.542Z,11.40
2019-04-06T23:55:34.163Z,11.83
2019-04-06T23:58:02.885Z,11.87
